Time;durP1;ratioP1;P1;durP2;ratioP2;P2;SDS_P1;SDS_P2;PMS_P1;PMS_P2;Temp;Humidity;BMP_temperature;BMP_pressure;BME280_temperature;BME280_humidity;BME280_pressure;Samples;Min_cycle;Max_cycle;Signal;HPM_P1;HPM_P2
2021/05/11 00:01:39;;;;;;;3.55;2.20;;;17.80;94.80;;;;;;6338749;22;20409;-76
2021/05/11 00:04:05;;;;;;;4.47;2.47;;;17.70;95.20;;;;;;6338840;22;20449;-82
2021/05/11 00:06:31;;;;;;;6.05;2.05;;;17.70;95.60;;;;;;6338383;22;20007;-83
2021/05/11 00:08:57;;;;;;;4.65;2.35;;;17.70;95.80;;;;;;6339001;22;19999;-83
2021/05/11 00:11:23;;;;;;;6.80;2.40;;;17.70;95.90;;;;;;6338652;22;20026;-82
2021/05/11 00:13:49;;;;;;;6.20;2.40;;;17.70;96.00;;;;;;6338649;22;20001;-80
2021/05/11 00:16:15;;;;;;;6.05;2.65;;;17.70;96.30;;;;;;6311043;22;20014;-82
2021/05/11 00:18:41;;;;;;;3.53;2.40;;;17.70;96.50;;;;;;6338683;22;20071;-78
2021/05/11 00:21:06;;;;;;;4.63;2.60;;;17.80;96.40;;;;;;6338681;22;20237;-76
2021/05/11 00:23:32;;;;;;;6.13;2.92;;;17.80;96.50;;;;;;6338629;22;20217;-83
2021/05/11 00:25:58;;;;;;;5.95;2.65;;;17.80;96.60;;;;;;6310809;22;20349;-77
2021/05/11 00:28:24;;;;;;;6.55;2.75;;;17.70;96.70;;;;;;6338530;22;20006;-77
2021/05/11 00:30:52;;;;;;;5.22;2.53;;;17.70;97.00;;;;;;6340152;22;20026;-76
2021/05/11 00:33:18;;;;;;;6.65;2.42;;;17.70;97.20;;;;;;6351902;22;20009;-80
2021/05/11 00:35:44;;;;;;;6.45;2.78;;;17.70;97.30;;;;;;6343872;22;20429;-82
2021/05/11 00:38:10;;;;;;;4.37;2.33;;;17.70;97.40;;;;;;6338668;22;20024;-77
2021/05/11 00:40:36;;;;;;;7.65;2.60;;;17.70;97.60;;;;;;6338442;22;19995;-77
2021/05/11 00:43:02;;;;;;;7.97;2.95;;;17.70;97.60;;;;;;6338412;22;20010;-82
2021/05/11 00:45:28;;;;;;;5.90;2.95;;;17.70;97.70;;;;;;6338347;22;20006;-82
2021/05/11 00:47:54;;;;;;;6.37;3.20;;;17.70;97.90;;;;;;6338432;22;20174;-81
2021/05/11 00:50:20;;;;;;;5.43;1.90;;;17.60;97.90;;;;;;6310609;22;20240;-77
2021/05/11 00:52:46;;;;;;;8.27;2.70;;;17.60;98.00;;;;;;6338549;22;20749;-82
2021/05/11 00:55:12;;;;;;;7.30;2.25;;;17.60;98.20;;;;;;6338266;22;20232;-83
2021/05/11 00:57:39;;;;;;;5.25;2.58;;;17.60;98.40;;;;;;6338232;22;20006;-80
2021/05/11 01:00:08;;;;;;;12.63;2.78;;;17.60;98.60;;;;;;6338524;22;20329;-80
2021/05/11 01:02:34;;;;;;;7.10;2.47;;;17.50;98.60;;;;;;6338205;22;20418;-82
2021/05/11 01:05:01;;;;;;;5.28;2.40;;;17.50;98.70;;;;;;6338103;22;20015;-78
2021/05/11 01:07:27;;;;;;;7.78;2.50;;;17.50;98.80;;;;;;6338116;22;20014;-82
2021/05/11 01:09:53;;;;;;;8.48;2.90;;;17.50;98.70;;;;;;6310712;22;20073;-82
2021/05/11 01:12:19;;;;;;;6.30;2.50;;;17.60;98.70;;;;;;6338224;22;20456;-77
2021/05/11 01:14:47;;;;;;;4.80;2.28;;;17.60;98.50;;;;;;6338127;22;20037;-82
2021/05/11 01:17:50;;;;;;;10.45;3.58;;;17.50;98.40;;;;;;6338193;22;20115;-82
2021/05/11 01:20:07;;;;;;;5.63;3.20;;;17.50;98.50;;;;;;6330452;22;20094;-82
2021/05/11 01:25:39;;;;;;;6.28;2.90;;;17.50;98.60;;;;;;6211925;23;20359;-83
2021/05/11 01:31:37;;;;;;;9.30;3.58;;;17.50;98.90;;;;;;6242161;22;20381;-82
2021/05/11 01:50:25;;;;;;;6.90;3.10;;;17.30;99.90;;;;;;6338350;22;20069;-82
2021/05/11 01:53:05;;;;;;;;;;;17.30;99.90;;;;;;6338487;22;20238;-78
2021/05/11 01:55:40;;;;;;;6.75;3.45;;;17.30;99.90;;;;;;6337945;22;19951;-78
2021/05/11 02:25:05;;;;;;;8.95;3.50;;;17.40;99.90;;;;;;6337677;22;20014;-76
2021/05/11 02:27:31;;;;;;;14.27;4.38;;;17.40;99.90;;;;;;6338018;22;20306;-81
2021/05/11 02:29:58;;;;;;;8.70;3.25;;;17.40;99.90;;;;;;6338135;22;19999;-82
2021/05/11 02:32:24;;;;;;;8.88;3.47;;;17.40;99.90;;;;;;6337530;22;20009;-80
2021/05/11 02:34:50;;;;;;;8.30;3.72;;;17.40;99.90;;;;;;6337724;22;20002;-80
2021/05/11 02:37:16;;;;;;;10.05;3.47;;;17.30;99.90;;;;;;6337937;22;20363;-82
2021/05/11 02:39:42;;;;;;;9.98;4.00;;;17.30;99.90;;;;;;6339555;22;20061;-82
2021/05/11 02:42:08;;;;;;;8.68;3.70;;;17.30;99.90;;;;;;6339506;22;19999;-76
2021/05/11 02:44:42;;;;;;;12.63;4.18;;;17.30;99.90;;;;;;6339509;22;20449;-79
2021/05/11 02:47:08;;;;;;;9.43;3.95;;;17.30;99.90;;;;;;6339411;22;20333;-80
2021/05/11 02:49:38;;;;;;;8.48;3.33;;;17.30;99.90;;;;;;6339829;22;20064;-80
2021/05/11 02:52:04;;;;;;;11.70;3.65;;;17.30;99.90;;;;;;6339890;22;20056;-81
2021/05/11 02:54:31;;;;;;;6.47;3.73;;;17.20;99.90;;;;;;6339581;22;20360;-76
2021/05/11 02:56:57;;;;;;;9.70;4.45;;;17.20;99.90;;;;;;6342002;22;20228;-78
2021/05/11 02:59:23;;;;;;;16.75;4.55;;;17.20;99.90;;;;;;6339843;22;20322;-82
2021/05/11 03:01:49;;;;;;;12.10;4.30;;;17.20;99.90;;;;;;6339227;22;20504;-83
2021/05/11 03:04:14;;;;;;;9.93;4.90;;;17.20;99.90;;;;;;6339347;22;20009;-81
2021/05/11 03:06:40;;;;;;;12.77;5.43;;;17.20;99.90;;;;;;6338866;22;20098;-78
2021/05/11 03:09:06;;;;;;;12.87;5.50;;;17.30;99.90;;;;;;6339132;22;20006;-81
2021/05/11 03:11:32;;;;;;;7.00;4.05;;;17.30;99.90;;;;;;6339061;22;20282;-80
2021/05/11 03:13:58;;;;;;;11.67;4.33;;;17.30;99.90;;;;;;6339337;22;20432;-82
2021/05/11 03:16:25;;;;;;;14.33;4.73;;;17.40;99.90;;;;;;6311723;22;20488;-81
2021/05/11 03:18:51;;;;;;;10.30;4.22;;;17.40;99.90;;;;;;6311737;22;20003;-77
2021/05/11 03:21:17;;;;;;;13.20;4.05;;;17.40;99.90;;;;;;6339240;22;20009;-81
2021/05/11 03:23:43;;;;;;;11.07;4.00;;;17.40;99.90;;;;;;6339285;22;20003;-80
2021/05/11 03:26:09;;;;;;;16.50;5.13;;;17.50;99.90;;;;;;6338907;22;20052;-81
2021/05/11 03:28:35;;;;;;;11.23;4.37;;;17.50;99.90;;;;;;6338919;22;20225;-80
2021/05/11 03:31:01;;;;;;;11.98;4.47;;;17.50;99.90;;;;;;6339054;22;20240;-80
2021/05/11 03:33:27;;;;;;;11.83;4.57;;;17.50;99.90;;;;;;6339165;22;20001;-81
2021/05/11 03:35:53;;;;;;;9.68;4.20;;;17.50;99.90;;;;;;6311450;22;20703;-82
2021/05/11 03:38:18;;;;;;;8.27;4.10;;;17.50;99.90;;;;;;6339244;22;20060;-81
2021/05/11 03:40:44;;;;;;;8.73;4.17;;;17.50;99.90;;;;;;6338808;22;20436;-77
2021/05/11 03:43:14;;;;;;;8.60;4.35;;;17.50;99.90;;;;;;6339163;22;20333;-82
2021/05/11 03:45:45;;;;;;;9.60;4.85;;;17.50;99.90;;;;;;6338794;22;20024;-82
2021/05/11 03:48:10;;;;;;;15.73;5.03;;;17.50;99.90;;;;;;6338818;22;20010;-82
2021/05/11 03:50:36;;;;;;;19.33;5.60;;;17.50;99.90;;;;;;6338672;22;19994;-78
2021/05/11 03:53:02;;;;;;;14.27;5.05;;;17.60;99.90;;;;;;6338952;22;20003;-82
2021/05/11 03:55:29;;;;;;;11.75;4.80;;;17.60;99.90;;;;;;6338861;22;20003;-82
2021/05/11 03:57:54;;;;;;;13.32;4.90;;;17.70;99.90;;;;;;6338827;22;20019;-81
2021/05/11 04:00:21;;;;;;;11.82;5.10;;;17.70;99.90;;;;;;6338761;22;20422;-82
2021/05/11 04:02:47;;;;;;;17.83;4.93;;;17.70;99.90;;;;;;6339001;22;20002;-81
2021/05/11 04:05:15;;;;;;;7.93;4.00;;;17.70;99.90;;;;;;6338574;22;20084;-81
2021/05/11 04:07:42;;;;;;;10.82;5.35;;;17.70;99.90;;;;;;6340298;22;20267;-82
2021/05/11 04:13:49;;;;;;;13.77;6.18;;;17.80;99.90;;;;;;6311600;22;20104;-82
2021/05/11 04:16:13;;;;;;;9.02;4.57;;;17.90;99.90;;;;;;6338208;22;20014;-78
2021/05/11 04:18:39;;;;;;;16.65;6.30;;;17.90;99.90;;;;;;6338770;22;19999;-80
2021/05/11 04:21:05;;;;;;;14.03;5.03;;;17.90;99.90;;;;;;6338868;22;20082;-82
2021/05/11 04:23:31;;;;;;;10.27;4.18;;;18.00;99.90;;;;;;6338544;22;20225;-80
2021/05/11 04:25:57;;;;;;;12.40;5.10;;;18.00;99.90;;;;;;6339146;22;20010;-82
2021/05/11 04:28:23;;;;;;;17.48;5.68;;;18.00;99.90;;;;;;6338852;22;20310;-81
2021/05/11 04:30:49;;;;;;;24.97;5.77;;;18.00;99.90;;;;;;6339168;22;20003;-82
2021/05/11 04:33:15;;;;;;;9.20;4.67;;;18.00;99.90;;;;;;6339702;22;20506;-81
2021/05/11 04:35:40;;;;;;;15.17;4.97;;;18.00;99.90;;;;;;6338618;22;20220;-82
2021/05/11 04:38:06;;;;;;;11.97;5.20;;;18.00;99.90;;;;;;6338356;22;20229;-82
2021/05/11 04:40:32;;;;;;;13.67;4.70;;;18.00;99.90;;;;;;6338787;22;20078;-83
2021/05/11 04:42:58;;;;;;;10.00;4.70;;;18.10;99.90;;;;;;6338722;22;20551;-82
2021/05/11 04:45:26;;;;;;;13.07;4.50;;;18.10;99.90;;;;;;6340525;22;20421;-81
2021/05/11 04:47:53;;;;;;;14.82;5.38;;;18.10;99.90;;;;;;6339593;22;20007;-79
2021/05/11 04:50:21;;;;;;;13.70;4.38;;;18.20;99.90;;;;;;6338270;22;20278;-78
2021/05/11 04:52:51;;;;;;;13.68;4.82;;;18.20;99.90;;;;;;6338285;22;20060;-82
2021/05/11 04:55:18;;;;;;;12.40;5.38;;;18.20;99.90;;;;;;6338257;22;19995;-82
2021/05/11 04:57:44;;;;;;;20.17;4.97;;;18.20;99.90;;;;;;6338271;22;19995;-81
2021/05/11 05:00:14;;;;;;;14.23;5.30;;;18.20;99.90;;;;;;6338216;22;20003;-82
2021/05/11 05:02:43;;;;;;;16.02;5.55;;;18.20;99.90;;;;;;6338160;22;20010;-82
2021/05/11 05:05:09;;;;;;;15.02;5.18;;;18.30;99.90;;;;;;6338022;22;20014;-78
2021/05/11 05:07:36;;;;;;;16.17;5.65;;;18.40;99.90;;;;;;6310268;22;20025;-82
2021/05/11 05:10:06;;;;;;;15.27;5.55;;;18.40;99.90;;;;;;6338437;22;20023;-80
2021/05/11 05:12:33;;;;;;;12.43;4.72;;;18.50;99.90;;;;;;6338076;22;20023;-83
2021/05/11 05:14:58;;;;;;;10.73;5.45;;;18.50;99.90;;;;;;6338184;22;20006;-82
2021/05/11 05:17:24;;;;;;;13.60;5.13;;;18.50;99.90;;;;;;6338557;22;20007;-81
2021/05/11 05:19:50;;;;;;;13.65;4.75;;;18.50;99.90;;;;;;6339783;22;20695;-81
2021/05/11 05:22:17;;;;;;;11.65;4.65;;;18.50;99.90;;;;;;6341098;22;20032;-79
2021/05/11 05:24:56;;;;;;;17.42;6.13;;;18.50;99.90;;;;;;6338140;22;20002;-80
2021/05/11 05:27:39;;;;;;;15.02;4.85;;;18.50;99.90;;;;;;6338188;22;20021;-77
2021/05/11 05:30:06;;;;;;;17.92;5.60;;;18.50;99.90;;;;;;6338634;22;20327;-80
2021/05/11 05:32:32;;;;;;;17.10;5.80;;;18.40;99.90;;;;;;6338068;22;20003;-80
2021/05/11 05:34:58;;;;;;;16.35;5.15;;;18.40;99.90;;;;;;6338388;22;20006;-82
2021/05/11 05:37:23;;;;;;;11.90;4.10;;;18.40;99.90;;;;;;6338143;22;20003;-77
2021/05/11 05:39:54;;;;;;;18.00;5.20;;;18.50;99.90;;;;;;6338032;22;19999;-81
2021/05/11 05:42:20;;;;;;;8.18;4.40;;;18.50;99.90;;;;;;6337896;22;20009;-77
2021/05/11 05:44:46;;;;;;;16.37;5.50;;;18.50;99.90;;;;;;6338021;22;20003;-83
2021/05/11 05:47:12;;;;;;;10.30;5.20;;;18.60;99.90;;;;;;6337862;22;20094;-78
2021/05/11 05:49:46;;;;;;;14.83;5.20;;;18.50;99.90;;;;;;6338442;22;20003;-83
2021/05/11 05:52:33;;;;;;;11.38;4.85;;;18.60;99.90;;;;;;6337793;22;20299;-81
2021/05/11 05:55:00;;;;;;;21.50;6.15;;;18.70;99.90;;;;;;6337900;22;20078;-82
2021/05/11 05:57:26;;;;;;;18.13;6.28;;;18.80;99.90;;;;;;6337880;22;20011;-78
2021/05/11 05:59:51;;;;;;;15.67;5.27;;;18.80;99.90;;;;;;6337888;22;20006;-80
2021/05/11 06:02:19;;;;;;;10.10;5.20;;;18.90;99.90;;;;;;6337784;22;20030;-83
2021/05/11 06:04:45;;;;;;;18.02;4.30;;;18.90;99.90;;;;;;6337663;22;20228;-83
2021/05/11 06:07:13;;;;;;;13.60;4.78;;;18.90;99.90;;;;;;6310059;22;20054;-82
2021/05/11 06:09:39;;;;;;;13.73;5.07;;;18.90;99.90;;;;;;6338402;22;20029;-82
2021/05/11 06:12:09;;;;;;;12.07;5.22;;;19.00;99.90;;;;;;6338162;22;20006;-81
2021/05/11 06:17:17;;;;;;;12.10;5.85;;;19.00;99.90;;;;;;6340574;22;19998;-82
2021/05/11 06:19:54;;;;;;;13.27;5.68;;;19.00;99.90;;;;;;6341034;22;20022;-83
2021/05/11 06:22:20;;;;;;;15.07;5.28;;;19.10;99.90;;;;;;6340794;22;20006;-82
2021/05/11 06:24:46;;;;;;;17.08;5.85;;;19.10;99.90;;;;;;6340828;22;20006;-83
2021/05/11 06:27:13;;;;;;;9.57;5.37;;;19.10;99.90;;;;;;6340529;22;20011;-82
2021/05/11 06:29:42;;;;;;;20.80;5.05;;;19.10;99.90;;;;;;6313543;22;20306;-81
2021/05/11 06:32:09;;;;;;;17.33;5.68;;;19.20;99.90;;;;;;6351486;22;20051;-82
2021/05/11 06:34:39;;;;;;;15.77;6.65;;;19.20;99.90;;;;;;6341860;22;20003;-82
2021/05/11 06:37:04;;;;;;;15.05;5.07;;;19.30;99.90;;;;;;6340612;22;19995;-84
2021/05/11 06:39:30;;;;;;;16.07;5.50;;;19.30;99.90;;;;;;6341096;22;19995;-83
2021/05/11 06:41:58;;;;;;;17.65;5.72;;;19.40;99.90;;;;;;6341120;22;20233;-83
2021/05/11 06:49:36;;;;;;;14.00;5.95;;;19.50;99.90;;;;;;6313119;22;20494;-82
2021/05/11 06:54:47;;;;;;;12.13;4.88;;;19.60;99.90;;;;;;6340730;22;19995;-82
2021/05/11 06:57:12;;;;;;;10.70;5.57;;;19.70;99.90;;;;;;6339978;22;20366;-83
2021/05/11 06:59:39;;;;;;;12.70;4.87;;;19.80;99.90;;;;;;6312926;22;20307;-80
2021/05/11 07:02:05;;;;;;;11.35;4.65;;;19.90;99.90;;;;;;6340490;22;20229;-83
2021/05/11 07:04:31;;;;;;;15.65;5.57;;;19.90;99.90;;;;;;6339808;22;20052;-83
2021/05/11 07:06:58;;;;;;;10.32;4.57;;;19.90;99.90;;;;;;6339424;22;20014;-84
2021/05/11 07:10:16;;;;;;;10.98;4.90;;;20.00;99.90;;;;;;6339790;22;20003;-83
2021/05/11 07:14:55;;;;;;;7.50;4.43;;;20.20;99.90;;;;;;6339871;22;20328;-83
2021/05/11 07:17:21;;;;;;;9.63;4.30;;;20.30;99.90;;;;;;6340173;22;20035;-82
2021/05/11 07:19:47;;;;;;;9.33;4.43;;;20.30;99.90;;;;;;6339964;22;20002;-83
2021/05/11 07:22:13;;;;;;;13.10;4.95;;;20.40;99.90;;;;;;6339497;22;20014;-83
2021/05/11 07:24:39;;;;;;;8.30;4.50;;;20.50;99.90;;;;;;6339319;22;20006;-83
2021/05/11 07:32:01;;;;;;;8.60;4.30;;;20.80;99.90;;;;;;6339885;22;20009;-83
2021/05/11 07:34:28;;;;;;;11.40;4.40;;;20.90;99.90;;;;;;6339922;22;20006;-84
2021/05/11 07:36:54;;;;;;;13.85;3.67;;;20.90;99.90;;;;;;6339679;22;20003;-83
2021/05/11 07:39:22;;;;;;;8.90;3.47;;;21.00;99.90;;;;;;6340177;22;19999;-83
2021/05/11 07:41:48;;;;;;;6.55;3.45;;;21.10;99.90;;;;;;6342338;22;20005;-83
2021/05/11 07:44:14;;;;;;;6.72;4.10;;;21.20;99.90;;;;;;6346935;22;20003;-84
2021/05/11 08:15:52;;;;;;;6.15;2.92;;;22.30;96.00;;;;;;6313027;22;20025;-84
2021/05/11 08:18:42;;;;;;;6.72;3.25;;;22.50;95.20;;;;;;6340839;22;20003;-85
2021/05/11 08:29:22;;;;;;;10.98;3.70;;;22.80;95.10;;;;;;6340332;22;19998;-82
2021/05/11 08:31:48;;;;;;;12.23;3.35;;;22.90;94.80;;;;;;6312751;22;20055;-84
2021/05/11 08:34:14;;;;;;;7.43;3.43;;;22.90;95.00;;;;;;6340246;22;20003;-84
2021/05/11 08:36:39;;;;;;;8.00;3.33;;;23.00;94.90;;;;;;6339996;22;20473;-84
2021/05/11 08:39:05;;;;;;;10.93;3.43;;;23.10;94.80;;;;;;6339643;22;20491;-82
2021/05/11 08:41:31;;;;;;;8.30;4.55;;;23.00;94.70;;;;;;6341377;22;20429;-84
2021/05/11 08:43:57;;;;;;;7.53;3.75;;;23.20;94.60;;;;;;6340200;22;20002;-84
2021/05/11 08:46:23;;;;;;;7.40;2.60;;;23.30;94.20;;;;;;6339214;22;20006;-83
2021/05/11 08:48:50;;;;;;;6.80;3.70;;;23.40;93.70;;;;;;6339460;22;20011;-84
2021/05/11 08:51:27;;;;;;;7.47;3.00;;;23.50;92.70;;;;;;6339807;22;20005;-83
2021/05/11 09:05:15;;;;;;;11.65;3.72;;;23.90;93.00;;;;;;6339607;22;20349;-82
2021/05/11 09:29:29;;;;;;;9.32;3.70;;;24.60;91.10;;;;;;6340105;22;20005;-85
2021/05/11 10:48:29;;;;;;;7.50;3.47;;;27.10;81.30;;;;;;6342359;22;20349;-83
2021/05/11 10:51:16;;;;;;;7.72;3.42;;;27.10;81.80;;;;;;6342126;22;20003;-84
2021/05/11 10:54:03;;;;;;;6.45;2.90;;;27.40;81.90;;;;;;6341972;22;20003;-84
2021/05/11 10:56:37;;;;;;;5.63;2.35;;;27.20;81.00;;;;;;6341062;22;20007;-81
2021/05/11 11:01:48;;;;;;;7.70;3.03;;;27.30;80.20;;;;;;6339567;22;20009;-82
2021/05/11 11:04:22;;;;;;;6.88;3.15;;;27.60;83.10;;;;;;6339240;22;20002;-84
2021/05/11 11:06:57;;;;;;;5.88;3.40;;;27.60;80.40;;;;;;6339533;22;20014;-83
2021/05/11 11:09:24;;;;;;;7.72;2.60;;;27.60;82.50;;;;;;6339649;22;20019;-82
2021/05/11 11:11:51;;;;;;;6.40;3.17;;;27.50;80.10;;;;;;6339804;22;20003;-84
2021/05/11 11:14:17;;;;;;;5.15;3.17;;;27.50;81.40;;;;;;6311855;22;20005;-83
2021/05/11 11:16:43;;;;;;;8.15;3.10;;;27.60;82.70;;;;;;6339402;22;20003;-78
2021/05/11 11:19:10;;;;;;;7.70;3.10;;;27.50;80.10;;;;;;6314021;22;20029;-82
2021/05/11 11:24:25;;;;;;;;;;;27.30;81.10;;;;;;6339548;22;20026;-84
2021/05/11 11:26:54;;;;;;;11.52;4.00;;;27.60;80.90;;;;;;6339067;22;19914;-82
2021/05/11 11:29:23;;;;;;;7.95;3.80;;;27.70;81.20;;;;;;6338943;22;19999;-85
2021/05/11 11:31:49;;;;;;;5.40;3.05;;;27.90;79.80;;;;;;6339081;22;20010;-84
2021/05/11 11:34:33;;;;;;;5.90;2.33;;;27.90;79.70;;;;;;6338899;22;20010;-82
2021/05/11 11:37:07;;;;;;;6.80;2.40;;;28.00;78.70;;;;;;6338962;22;20014;-83
2021/05/11 11:39:36;;;;;;;7.15;2.90;;;27.80;75.90;;;;;;6339252;22;20047;-80
2021/05/11 11:42:06;;;;;;;4.45;2.50;;;27.90;77.10;;;;;;6339001;22;19999;-83
2021/05/11 11:44:37;;;;;;;4.82;2.55;;;27.90;77.90;;;;;;6338832;22;20014;-80
2021/05/11 11:47:04;;;;;;;10.10;3.28;;;28.00;78.50;;;;;;6338840;22;20087;-82
2021/05/11 11:49:32;;;;;;;10.75;3.28;;;28.10;78.30;;;;;;6338899;22;20064;-81
2021/05/11 11:52:08;;;;;;;7.95;2.80;;;28.30;78.10;;;;;;6338808;22;20002;-83
2021/05/11 11:59:27;;;;;;;7.45;3.28;;;28.10;76.00;;;;;;6338798;22;20068;-80
2021/05/11 12:02:01;;;;;;;5.80;2.60;;;28.00;77.00;;;;;;6338787;22;20003;-78
2021/05/11 12:04:28;;;;;;;6.95;3.13;;;28.10;77.50;;;;;;6338554;22;19999;-83
2021/05/11 12:07:01;;;;;;;6.72;2.83;;;28.00;77.30;;;;;;6338572;22;20018;-82
2021/05/11 12:09:28;;;;;;;7.88;2.67;;;28.00;75.40;;;;;;6338699;22;20063;-83
2021/05/11 12:11:54;;;;;;;3.72;2.65;;;28.00;76.20;;;;;;6338828;22;20384;-83
2021/05/11 12:14:20;;;;;;;5.60;2.53;;;28.30;78.30;;;;;;6339184;22;20003;-78
2021/05/11 12:16:47;;;;;;;7.97;3.23;;;28.50;76.90;;;;;;6338664;22;20426;-80
2021/05/11 12:19:22;;;;;;;8.88;2.30;;;28.40;76.70;;;;;;6338692;22;20013;-84
2021/05/11 12:22:04;;;;;;;5.32;2.42;;;28.50;75.70;;;;;;6338872;22;20059;-78
2021/05/11 12:24:34;;;;;;;8.35;3.00;;;28.40;75.10;;;;;;6338908;22;20006;-82
2021/05/11 12:27:20;;;;;;;5.22;2.55;;;28.60;75.80;;;;;;6338611;22;20076;-80
2021/05/11 12:30:05;;;;;;;7.68;2.25;;;28.20;76.00;;;;;;6340622;22;20003;-78
2021/05/11 12:32:34;;;;;;;9.38;2.45;;;28.20;76.90;;;;;;6339908;22;19998;-84
2021/05/11 12:35:07;;;;;;;5.40;3.13;;;28.10;76.60;;;;;;6339276;22;20328;-81
2021/05/11 12:37:54;;;;;;;6.57;3.17;;;28.30;77.10;;;;;;6338603;22;19999;-84
2021/05/11 12:40:28;;;;;;;8.52;3.33;;;28.50;76.50;;;;;;6338825;22;20014;-83
2021/05/11 12:42:57;;;;;;;9.35;4.18;;;28.60;76.00;;;;;;6338581;22;20600;-82
2021/05/11 12:45:23;;;;;;;7.18;3.17;;;28.50;77.20;;;;;;6338596;22;20064;-83
2021/05/11 12:48:00;;;;;;;7.20;3.00;;;28.60;75.40;;;;;;6338397;22;20007;-79
2021/05/11 12:50:31;;;;;;;11.70;3.28;;;28.50;75.70;;;;;;6338463;22;20013;-83
2021/05/11 12:53:04;;;;;;;8.38;3.08;;;28.60;75.80;;;;;;6338876;22;20384;-81
2021/05/11 13:21:05;;;;;;;8.10;3.90;;;29.10;71.60;;;;;;6274885;22;20011;-79
2021/05/11 13:26:25;;;;;;;5.82;2.42;;;29.30;71.50;;;;;;6341395;22;20003;-83
2021/05/11 13:29:02;;;;;;;6.32;3.28;;;29.30;70.60;;;;;;6312637;22;20325;-79
2021/05/11 13:36:29;;;;;;;6.38;3.10;;;29.20;70.20;;;;;;6338274;22;20367;-80
2021/05/11 13:38:54;;;;;;;6.90;3.63;;;29.20;71.20;;;;;;6338408;22;19998;-79
2021/05/11 13:41:21;;;;;;;7.63;3.13;;;29.00;70.70;;;;;;6341329;22;20006;-81
2021/05/11 13:43:47;;;;;;;7.38;2.38;;;29.10;70.00;;;;;;6339474;22;20056;-83
2021/05/11 13:46:13;;;;;;;9.13;4.13;;;29.00;71.40;;;;;;6338159;22;20367;-81
2021/05/11 13:48:41;;;;;;;6.57;3.53;;;29.20;72.50;;;;;;6310676;22;20010;-79
2021/05/11 13:51:13;;;;;;;7.18;3.55;;;29.10;72.10;;;;;;6338249;22;20006;-78
2021/05/11 13:53:41;;;;;;;3.13;2.13;;;29.20;72.80;;;;;;6338489;22;20381;-78
2021/05/11 14:04:02;;;;;;;3.22;2.20;;;29.10;72.30;;;;;;6338296;22;20463;-80
2021/05/11 14:06:29;;;;;;;4.55;2.75;;;29.30;72.30;;;;;;6337692;22;20015;-83
2021/05/11 14:08:55;;;;;;;6.05;2.92;;;29.20;72.60;;;;;;6310360;22;20429;-77
2021/05/11 14:11:21;;;;;;;6.72;2.60;;;29.20;71.90;;;;;;6338195;22;20037;-81
2021/05/11 14:13:48;;;;;;;8.15;3.40;;;29.40;71.80;;;;;;6338020;22;20003;-80
2021/05/11 14:16:14;;;;;;;6.57;2.85;;;29.50;72.50;;;;;;6338261;22;20433;-78
2021/05/11 14:18:39;;;;;;;7.05;2.55;;;29.40;70.40;;;;;;6337984;22;19999;-80
2021/05/11 14:21:06;;;;;;;6.20;2.53;;;29.40;71.40;;;;;;6310358;22;19998;-83
2021/05/11 14:23:33;;;;;;;5.20;3.08;;;29.40;71.80;;;;;;6337794;22;20033;-79
2021/05/11 14:25:59;;;;;;;4.70;2.47;;;29.30;70.20;;;;;;6337727;22;20051;-83
2021/05/11 14:28:25;;;;;;;5.40;2.30;;;29.40;70.20;;;;;;6337633;22;20011;-84
2021/05/11 14:30:51;;;;;;;6.53;2.45;;;29.30;68.20;;;;;;6337899;22;20002;-78
2021/05/11 14:33:17;;;;;;;10.30;2.53;;;29.10;69.70;;;;;;6338164;22;20007;-83
2021/05/11 14:35:43;;;;;;;2.67;2.20;;;29.20;69.40;;;;;;6339700;22;20259;-79
2021/05/11 14:38:09;;;;;;;5.25;2.60;;;28.90;71.20;;;;;;6339478;22;20002;-83
2021/05/11 14:40:35;;;;;;;6.83;2.90;;;28.70;68.90;;;;;;6312168;22;20010;-80
2021/05/11 14:43:01;;;;;;;7.27;3.27;;;28.50;71.40;;;;;;6339742;22;20372;-83
2021/05/11 14:45:27;;;;;;;7.50;3.75;;;28.60;71.00;;;;;;6339881;22;20025;-84
2021/05/11 14:47:54;;;;;;;5.00;3.30;;;28.60;73.30;;;;;;6339716;22;20426;-79
2021/05/11 14:50:21;;;;;;;7.15;3.25;;;28.50;71.60;;;;;;6340146;22;20006;-82
2021/05/11 14:52:50;;;;;;;9.40;3.40;;;28.70;72.40;;;;;;6343209;22;20007;-77
2021/05/11 14:55:18;;;;;;;5.45;3.60;;;28.40;71.80;;;;;;6341936;22;20436;-83
2021/05/11 14:57:45;;;;;;;7.63;2.75;;;28.60;71.70;;;;;;6340060;22;20002;-80
2021/05/11 15:00:11;;;;;;;6.88;3.10;;;28.50;71.70;;;;;;6339923;22;20003;-83
2021/05/11 15:02:38;;;;;;;4.03;2.33;;;28.20;71.80;;;;;;6312200;22;20340;-78
2021/05/11 15:05:04;;;;;;;4.93;2.53;;;28.20;72.60;;;;;;6339558;22;20081;-85
2021/05/11 15:07:30;;;;;;;13.27;2.97;;;28.10;72.30;;;;;;6339396;22;20341;-82
2021/05/11 15:09:56;;;;;;;7.57;2.33;;;28.10;71.70;;;;;;6339428;22;20007;-81
2021/05/11 15:12:22;;;;;;;4.50;2.00;;;27.90;72.40;;;;;;6339473;22;20605;-82
2021/05/11 15:14:48;;;;;;;9.43;2.87;;;27.70;71.50;;;;;;6339322;22;20074;-83
2021/05/11 15:19:50;;;;;;;6.25;2.30;;;27.50;71.70;;;;;;6339561;22;20010;-82
2021/05/11 15:22:16;;;;;;;4.55;2.28;;;27.70;72.30;;;;;;6311778;22;20006;-84
2021/05/11 15:24:42;;;;;;;6.75;3.10;;;27.60;71.60;;;;;;6339411;22;20375;-78
2021/05/11 15:27:09;;;;;;;5.07;2.10;;;27.40;72.00;;;;;;6339124;22;20007;-83
2021/05/11 15:29:37;;;;;;;3.22;2.20;;;27.30;71.40;;;;;;6340002;22;20418;-80
2021/05/11 15:32:23;;;;;;;7.32;2.33;;;27.30;73.10;;;;;;6339257;22;20051;-82
2021/05/11 15:34:49;;;;;;;11.30;3.60;;;27.10;73.20;;;;;;6339627;22;20433;-83
2021/05/11 15:37:16;;;;;;;3.33;2.40;;;27.00;73.80;;;;;;6339576;22;20002;-82
2021/05/11 15:40:10;;;;;;;4.38;2.22;;;27.00;73.70;;;;;;6339194;22;20018;-81
2021/05/11 15:42:36;;;;;;;3.95;2.22;;;26.80;74.40;;;;;;6339353;22;20087;-83
2021/05/11 15:45:07;;;;;;;7.85;2.30;;;26.70;74.50;;;;;;6338623;22;20425;-81
2021/05/11 15:47:33;;;;;;;8.45;2.40;;;26.60;74.60;;;;;;6311688;22;20068;-79
2021/05/11 15:49:58;;;;;;;5.90;2.40;;;26.50;75.90;;;;;;6339201;22;19999;-82
2021/05/11 15:52:25;;;;;;;18.30;3.00;;;26.40;76.50;;;;;;6339193;22;20106;-77
2021/05/11 15:54:51;;;;;;;5.15;2.40;;;26.30;77.40;;;;;;6339063;22;19995;-80
2021/05/11 15:57:18;;;;;;;7.40;3.05;;;26.10;77.50;;;;;;6339138;22;20429;-82
2021/05/11 15:59:43;;;;;;;6.50;2.47;;;26.20;77.60;;;;;;6339132;22;19999;-81
2021/05/11 16:02:10;;;;;;;7.47;2.60;;;26.10;76.50;;;;;;6311633;22;20002;-81
2021/05/11 16:04:36;;;;;;;5.95;2.95;;;25.90;76.40;;;;;;6313447;22;20242;-82
2021/05/11 16:07:03;;;;;;;5.78;2.38;;;25.80;76.40;;;;;;6339866;22;20007;-79
2021/05/11 16:09:29;;;;;;;16.35;2.80;;;25.80;76.10;;;;;;6339095;22;20003;-83
2021/05/11 16:11:56;;;;;;;6.80;2.63;;;25.70;75.80;;;;;;6339519;22;20085;-79
2021/05/11 16:14:22;;;;;;;5.53;2.95;;;25.60;75.30;;;;;;6339204;22;20006;-83
2021/05/11 16:16:48;;;;;;;4.50;2.00;;;25.50;75.70;;;;;;6339202;22;20003;-79
2021/05/11 16:19:14;;;;;;;4.27;2.27;;;25.60;75.20;;;;;;6339358;22;20064;-80
2021/05/11 16:21:40;;;;;;;5.83;2.80;;;25.50;76.00;;;;;;6338917;22;20002;-83
2021/05/11 16:24:06;;;;;;;9.45;2.65;;;25.40;76.20;;;;;;6338574;22;20007;-80
2021/05/11 16:26:32;;;;;;;12.10;2.58;;;25.50;76.20;;;;;;6338588;22;20014;-83
2021/05/11 16:28:58;;;;;;;4.97;1.88;;;25.40;76.10;;;;;;6338552;22;20007;-84
2021/05/11 16:31:24;;;;;;;7.18;2.58;;;25.40;76.20;;;;;;6310818;22;20009;-82
2021/05/11 16:33:50;;;;;;;3.28;2.13;;;25.30;75.90;;;;;;6338710;22;19998;-82
2021/05/11 16:36:17;;;;;;;7.38;2.70;;;25.30;75.90;;;;;;6338464;22;20003;-78
2021/05/11 16:38:43;;;;;;;7.93;2.90;;;25.20;75.60;;;;;;6338716;22;20039;-82
2021/05/11 16:41:10;;;;;;;7.75;2.92;;;24.90;76.10;;;;;;6338492;22;20082;-82
2021/05/11 16:43:36;;;;;;;6.28;2.10;;;24.80;76.90;;;;;;6338957;22;20010;-79
2021/05/11 16:46:04;;;;;;;6.05;1.98;;;24.70;76.30;;;;;;6338972;22;20007;-80
2021/05/11 16:48:31;;;;;;;4.38;2.28;;;24.70;77.70;;;;;;6311019;22;20018;-79
2021/05/11 16:50:57;;;;;;;5.53;2.35;;;24.40;77.50;;;;;;6338944;22;19999;-78
2021/05/11 16:53:24;;;;;;;2.70;2.00;;;24.30;77.80;;;;;;6338698;22;20007;-78
2021/05/11 16:55:50;;;;;;;5.43;2.08;;;24.10;78.10;;;;;;6338678;22;19999;-79
2021/05/11 16:58:16;;;;;;;3.37;1.70;;;24.00;78.80;;;;;;6338521;22;20456;-78
2021/05/11 17:00:43;;;;;;;9.20;2.80;;;23.90;79.30;;;;;;6338534;22;20002;-77
2021/05/11 17:03:09;;;;;;;7.13;2.20;;;23.90;79.90;;;;;;6338487;22;20333;-82
2021/05/11 17:05:36;;;;;;;8.27;2.00;;;23.70;79.10;;;;;;6338316;22;20011;-78
2021/05/11 17:08:04;;;;;;;7.75;3.17;;;23.60;79.70;;;;;;6338283;22;20444;-79
2021/05/11 17:10:32;;;;;;;2.63;1.67;;;23.40;80.30;;;;;;6338400;22;20048;-83
2021/05/11 17:13:00;;;;;;;7.45;2.20;;;23.30;80.70;;;;;;6338464;22;20028;-83
2021/05/11 17:15:28;;;;;;;7.40;2.03;;;23.30;80.70;;;;;;6340845;22;20077;-80
2021/05/11 17:17:54;;;;;;;9.50;2.72;;;23.30;80.50;;;;;;6340935;22;20052;-80
2021/05/11 17:20:22;;;;;;;3.47;2.15;;;23.10;80.50;;;;;;6338295;22;19999;-78